createdAt,value
2023-10-29T00:02:01.641Z,96574.13
2023-10-29T00:04:33.601Z,96580.00
2023-10-29T00:07:00.284Z,96567.16
2023-10-29T00:09:26.753Z,96569.84
2023-10-29T00:11:53.265Z,96564.50
2023-10-29T00:14:20.901Z,96560.81
2023-10-29T00:16:48.178Z,96559.75
2023-10-29T00:19:14.622Z,96559.75
2023-10-29T00:21:41.198Z,96556.00
2023-10-29T00:24:08.436Z,96557.06
2023-10-29T00:26:35.447Z,96574.69
2023-10-29T00:29:02.170Z,96564.56
2023-10-29T00:31:28.694Z,96560.31
2023-10-29T00:33:55.949Z,96542.69
2023-10-29T00:36:22.914Z,96552.03
2023-10-29T00:38:49.568Z,96556.03
2023-10-29T00:41:16.483Z,96560.00
2023-10-29T00:43:43.648Z,96557.63
2023-10-29T00:46:12.899Z,96576.81
2023-10-29T00:48:39.610Z,96572.56
2023-10-29T00:51:06.326Z,96573.63
2023-10-29T00:53:34.369Z,96582.16
2023-10-29T00:56:02.961Z,96592.31
2023-10-29T00:58:29.763Z,96593.09
2023-10-29T01:00:57.512Z,96582.69
2023-10-29T01:03:24.170Z,96539.47
2023-10-29T01:05:51.495Z,96561.34
2023-10-29T01:08:18.907Z,96550.69
2023-10-29T01:10:45.380Z,96553.09
2023-10-29T01:13:11.951Z,96557.63
2023-10-29T01:15:38.439Z,96554.13
2023-10-29T01:18:05.077Z,96524.53
2023-10-29T01:20:31.712Z,96530.97
2023-10-29T01:22:59.551Z,96526.97
2023-10-29T01:25:26.014Z,96516.84
2023-10-29T01:27:53.779Z,96509.88
2023-10-29T01:30:20.971Z,96509.09
2023-10-29T01:32:47.553Z,96500.03
2023-10-29T01:35:14.067Z,96497.88
2023-10-29T01:37:40.799Z,96490.69
2023-10-29T01:40:08.157Z,96488.03
2023-10-29T01:42:34.676Z,96480.31
2023-10-29T01:45:01.172Z,96484.56
2023-10-29T01:47:27.748Z,96485.66
2023-10-29T01:49:54.270Z,96479.50
2023-10-29T01:52:20.810Z,96459.53
2023-10-29T01:54:47.511Z,96463.53
2023-10-29T01:57:14.204Z,96462.72
2023-10-29T01:59:40.828Z,96461.91
2023-10-29T02:02:07.321Z,96471.78
2023-10-29T02:04:35.055Z,96483.22
2023-10-29T02:07:01.835Z,96466.47
2023-10-29T02:09:29.147Z,96496.03
2023-10-29T02:11:55.700Z,96498.97
2023-10-29T02:14:22.350Z,96516.56
2023-10-29T02:16:50.648Z,96501.13
2023-10-29T02:19:17.260Z,96498.16
2023-10-29T02:21:43.855Z,96496.84
2023-10-29T02:24:10.460Z,96498.16
2023-10-29T02:26:36.927Z,96490.97
2023-10-29T02:29:03.534Z,96503.78
2023-10-29T02:31:30.146Z,96497.38
2023-10-29T02:33:56.908Z,96492.56
2023-10-29T02:36:23.458Z,96491.50
2023-10-29T02:38:50.063Z,96496.56
2023-10-29T02:41:16.592Z,96475.50
2023-10-29T02:43:43.129Z,96496.84
2023-10-29T02:46:11.715Z,96484.03
2023-10-29T02:48:38.472Z,96489.66
2023-10-29T02:51:05.096Z,96491.78
2023-10-29T02:53:32.454Z,96491.50
2023-10-29T02:56:02.528Z,96496.31
2023-10-29T02:58:29.376Z,96503.78
2023-10-29T03:01:07.043Z,96502.44
2023-10-29T03:03:35.402Z,96512.00
2023-10-29T03:06:06.564Z,96517.31
2023-10-29T03:08:33.977Z,96519.19
2023-10-29T03:11:01.375Z,96505.06
2023-10-29T03:13:28.396Z,96510.94
2023-10-29T03:15:56.055Z,96495.19
2023-10-29T03:18:23.910Z,96518.13
2023-10-29T03:20:50.803Z,96520.50
2023-10-29T03:23:17.361Z,96517.63
2023-10-29T03:25:45.913Z,96534.94
2023-10-29T03:28:13.025Z,96528.53
2023-10-29T03:30:39.646Z,96521.34
2023-10-29T03:33:06.353Z,96532.56
2023-10-29T03:35:32.975Z,96525.88
2023-10-29T03:37:59.517Z,96517.13
2023-10-29T03:40:26.171Z,96506.16
2023-10-29T03:42:52.692Z,96512.84
2023-10-29T03:45:19.715Z,96504.56
2023-10-29T03:47:46.818Z,96510.72
2023-10-29T03:50:13.427Z,96520.59
2023-10-29T03:52:40.124Z,96522.72
2023-10-29T03:55:06.859Z,96521.66
2023-10-29T03:57:33.875Z,96522.72
2023-10-29T04:00:00.559Z,96507.00
2023-10-29T04:02:27.281Z,96528.56
2023-10-29T04:05:08.227Z,96517.91
2023-10-29T04:07:36.691Z,96508.56
2023-10-29T04:10:04.184Z,96521.06
2023-10-29T04:12:30.812Z,96512.81
2023-10-29T04:14:57.630Z,96526.69
2023-10-29T04:17:24.598Z,96537.09
2023-10-29T04:19:51.140Z,96534.16
2023-10-29T04:22:17.789Z,96551.78
2023-10-29T04:24:44.352Z,96546.72
2023-10-29T04:27:10.916Z,96545.66
2023-10-29T04:29:37.604Z,96548.59
2023-10-29T04:32:04.604Z,96562.44
2023-10-29T04:34:31.080Z,96537.91
2023-10-29T04:36:57.611Z,96550.72
2023-10-29T04:39:24.109Z,96532.06
2023-10-29T04:41:51.032Z,96544.34
2023-10-29T04:44:17.865Z,96537.38
2023-10-29T04:46:44.479Z,96543.53
2023-10-29T04:49:10.952Z,96529.41
2023-10-29T04:51:37.549Z,96536.84
2023-10-29T04:54:04.357Z,96530.41
2023-10-29T04:56:31.242Z,96528.56
2023-10-29T04:58:57.720Z,96529.13
2023-10-29T05:01:24.494Z,96535.75
2023-10-29T05:03:52.317Z,96534.19
2023-10-29T05:06:22.687Z,96542.44
2023-10-29T05:08:50.614Z,96541.66
2023-10-29T05:11:17.584Z,96546.97
2023-10-29T05:13:44.365Z,96546.69
2023-10-29T05:16:12.432Z,96566.16
2023-10-29T05:18:39.055Z,96558.16
2023-10-29T05:21:05.597Z,96552.31
2023-10-29T05:23:33.296Z,96549.66
2023-10-29T05:25:59.803Z,96542.69
2023-10-29T05:28:27.846Z,96540.56
2023-10-29T05:30:54.542Z,96550.16
2023-10-29T05:33:21.899Z,96553.91
2023-10-29T05:35:48.852Z,96566.19
2023-10-29T05:38:15.909Z,96556.56
2023-10-29T05:40:42.391Z,96566.97
2023-10-29T05:43:09.081Z,96557.66
2023-10-29T05:45:35.621Z,96570.16
2023-10-29T05:48:02.744Z,96541.34
2023-10-29T05:50:29.441Z,96581.88
2023-10-29T05:52:55.999Z,96584.53
2023-10-29T05:55:23.589Z,96576.84
2023-10-29T05:57:50.604Z,96581.66
2023-10-29T06:00:17.479Z,96608.56
2023-10-29T06:02:44.255Z,96605.63
2023-10-29T06:05:10.818Z,96613.38
2023-10-29T06:07:38.276Z,96617.66
2023-10-29T06:10:06.252Z,96620.56
2023-10-29T06:12:32.768Z,96623.22
2023-10-29T06:14:59.316Z,96613.88
2023-10-29T06:17:27.449Z,96622.16
2023-10-29T06:19:54.296Z,96625.34
2023-10-29T06:22:20.864Z,96628.00
2023-10-29T06:24:47.576Z,96632.31
2023-10-29T06:27:14.246Z,96626.69
2023-10-29T06:29:40.911Z,96624.56
2023-10-29T06:32:08.082Z,96610.97
2023-10-29T06:34:34.688Z,96596.31
2023-10-29T06:37:01.152Z,96593.91
2023-10-29T06:39:27.723Z,96606.75
2023-10-29T06:41:54.223Z,96597.13
2023-10-29T06:44:20.718Z,96572.59
2023-10-29T06:46:47.298Z,96579.25
2023-10-29T06:49:13.837Z,96573.94
2023-10-29T06:51:40.374Z,96587.53
2023-10-29T06:54:07.068Z,96589.09
2023-10-29T06:56:33.533Z,96574.69
2023-10-29T06:59:00.049Z,96590.16
2023-10-29T07:01:26.519Z,96567.78
2023-10-29T07:03:53.346Z,96588.53
2023-10-29T07:06:20.478Z,96582.44
2023-10-29T07:08:48.804Z,96595.50
2023-10-29T07:11:15.436Z,96598.75
2023-10-29T07:13:43.025Z,96602.47
2023-10-29T07:16:10.184Z,96601.41
2023-10-29T07:18:39.644Z,96612.88
2023-10-29T07:21:06.390Z,96599.03
2023-10-29T07:23:33.084Z,96602.75
2023-10-29T07:25:59.663Z,96604.34
2023-10-29T07:28:26.145Z,96592.34
2023-10-29T07:30:52.915Z,96587.78
2023-10-29T07:33:19.621Z,96572.06
2023-10-29T07:35:47.248Z,96565.41
2023-10-29T07:38:13.803Z,96559.25
2023-10-29T07:40:40.372Z,96548.06
2023-10-29T07:43:06.972Z,96562.44
2023-10-29T07:45:33.585Z,96562.44
2023-10-29T07:48:00.170Z,96573.69
2023-10-29T07:50:27.227Z,96568.06
2023-10-29T07:52:54.071Z,96563.00
2023-10-29T07:55:20.760Z,96568.88
2023-10-29T07:57:47.352Z,96552.59
2023-10-29T08:00:14.971Z,96573.13
2023-10-29T08:02:45.556Z,96559.78
2023-10-29T08:05:12.164Z,96566.44
2023-10-29T08:07:40.221Z,96585.94
2023-10-29T08:10:07.410Z,96591.78
2023-10-29T08:12:35.593Z,96597.13
2023-10-29T08:15:04.057Z,96578.75
2023-10-29T08:17:56.984Z,96579.78
2023-10-29T08:20:50.182Z,96567.78
2023-10-29T08:23:16.906Z,96574.44
2023-10-29T08:25:43.348Z,96565.13
2023-10-29T08:28:10.912Z,96570.22
2023-10-29T08:30:38.064Z,96532.34
2023-10-29T08:33:04.624Z,96560.88
2023-10-29T08:35:31.215Z,96558.72
2023-10-29T08:37:57.942Z,96571.53
2023-10-29T08:40:24.602Z,96591.78
2023-10-29T08:42:51.064Z,96598.22
2023-10-29T08:45:24.394Z,96591.00
2023-10-29T08:47:57.674Z,96585.38
2023-10-29T08:50:24.314Z,96593.91
2023-10-29T08:52:50.797Z,96598.44
2023-10-29T08:55:17.456Z,96592.56
2023-10-29T08:57:44.322Z,96600.31
2023-10-29T09:00:11.489Z,96594.19
2023-10-29T09:02:40.508Z,96605.13
2023-10-29T09:05:08.283Z,96613.41
2023-10-29T09:07:35.596Z,96618.22
2023-10-29T09:10:03.238Z,96616.88
2023-10-29T09:12:29.721Z,96625.69
2023-10-29T09:14:56.265Z,96633.13
2023-10-29T09:17:22.750Z,96644.63
2023-10-29T09:19:49.258Z,96659.06
2023-10-29T09:22:15.734Z,96649.72
2023-10-29T09:24:42.328Z,96640.91
2023-10-29T09:27:08.812Z,96622.22
2023-10-29T09:29:37.465Z,96625.94
2023-10-29T09:32:08.791Z,96626.47
2023-10-29T09:34:36.397Z,96623.81
2023-10-29T09:37:04.295Z,96632.91
2023-10-29T09:39:30.909Z,96647.28
2023-10-29T09:42:09.173Z,96635.03
2023-10-29T09:44:40.679Z,96650.25
2023-10-29T09:47:15.266Z,96634.47
2023-10-29T09:49:42.547Z,96633.97
2023-10-29T09:52:09.538Z,96660.41
2023-10-29T09:54:39.875Z,96666.50
2023-10-29T09:57:07.592Z,96671.59
2023-10-29T09:59:36.110Z,96668.94
2023-10-29T10:02:04.030Z,96670.78
2023-10-29T10:04:30.710Z,96663.31
2023-10-29T10:06:59.445Z,96659.84
2023-10-29T10:09:26.010Z,96644.63
2023-10-29T10:12:06.488Z,96644.63
2023-10-29T10:14:33.395Z,96637.94
2023-10-29T10:17:10.242Z,96650.78
2023-10-29T10:19:38.221Z,96660.66
2023-10-29T10:22:05.410Z,96670.28
2023-10-29T10:24:46.149Z,96667.06
2023-10-29T10:27:15.004Z,96640.09
2023-10-29T10:29:41.607Z,96652.63
2023-10-29T10:32:09.690Z,96640.91
2023-10-29T10:34:38.344Z,96642.22
2023-10-29T10:37:05.536Z,96641.44
2023-10-29T10:39:33.160Z,96648.09
2023-10-29T10:42:01.813Z,96645.44
2023-10-29T10:44:30.603Z,96644.63
2023-10-29T10:47:00.396Z,96655.06
2023-10-29T10:49:31.703Z,96659.06
2023-10-29T10:52:00.296Z,96636.31
2023-10-29T10:54:27.356Z,96639.78
2023-10-29T10:56:56.709Z,96634.75
2023-10-29T10:59:23.990Z,96643.03
2023-10-29T11:01:50.790Z,96646.78
2023-10-29T11:04:18.955Z,96643.56
2023-10-29T11:06:46.532Z,96662.78
2023-10-29T11:09:14.586Z,96636.09
2023-10-29T11:11:51.844Z,96657.72
2023-10-29T11:14:19.713Z,96659.59
2023-10-29T11:16:47.535Z,96640.63
2023-10-29T11:19:45.963Z,96645.16
2023-10-29T11:22:23.594Z,96640.38
2023-10-29T11:25:09.609Z,96635.81
2023-10-29T11:27:45.365Z,96641.41
2023-10-29T11:30:15.674Z,96627.56
2023-10-29T11:32:43.478Z,96613.09
2023-10-29T11:35:18.201Z,96627.53
2023-10-29T11:37:45.415Z,96631.78
2023-10-29T11:40:24.214Z,96630.72
2023-10-29T11:42:54.297Z,96617.88
2023-10-29T11:45:27.042Z,96608.81
2023-10-29T11:48:12.436Z,96604.56
2023-10-29T11:50:40.563Z,96599.19
2023-10-29T11:53:07.628Z,96603.72
2023-10-29T11:55:43.325Z,96602.94
2023-10-29T11:58:09.898Z,96613.88
2023-10-29T12:00:39.805Z,96596.78
2023-10-29T12:03:06.605Z,96604.25
2023-10-29T12:05:33.261Z,96591.97
2023-10-29T12:08:01.271Z,96586.34
2023-10-29T12:10:28.273Z,96590.09
2023-10-29T12:12:55.362Z,96586.84
2023-10-29T12:15:22.168Z,96601.53
2023-10-29T12:17:49.010Z,96585.50
2023-10-29T12:20:26.738Z,96578.31
2023-10-29T12:22:59.001Z,96574.59
2023-10-29T12:25:28.072Z,96575.13
2023-10-29T12:27:56.036Z,96559.34
2023-10-29T12:30:36.698Z,96565.75
2023-10-29T12:33:35.759Z,96565.19
2023-10-29T12:36:07.710Z,96574.22
2023-10-29T12:38:39.162Z,96564.88
2023-10-29T12:41:15.618Z,96564.81
2023-10-29T12:43:44.888Z,96554.63
2023-10-29T12:46:16.156Z,96561.31
2023-10-29T12:49:02.268Z,96575.22
2023-10-29T12:51:34.750Z,96546.34
2023-10-29T12:54:21.676Z,96550.03
2023-10-29T12:57:02.751Z,96542.84
2023-10-29T12:59:33.183Z,96540.66
2023-10-29T13:02:07.174Z,96535.81
2023-10-29T13:04:35.677Z,96533.09
2023-10-29T13:07:09.125Z,96512.00
2023-10-29T13:09:37.634Z,96518.06
2023-10-29T13:12:09.148Z,96512.69
2023-10-29T13:14:37.051Z,96503.03
2023-10-29T13:17:04.531Z,96493.44
2023-10-29T13:19:31.463Z,96480.97
2023-10-29T13:21:57.978Z,96476.44
2023-10-29T13:24:24.627Z,96477.50
2023-10-29T13:26:52.285Z,96460.69
2023-10-29T13:29:19.823Z,96463.94
2023-10-29T13:31:47.003Z,96457.56
2023-10-29T13:34:14.387Z,96458.22
2023-10-29T13:36:41.032Z,96445.78
2023-10-29T13:39:08.095Z,96474.53
2023-10-29T13:41:41.278Z,96473.66
2023-10-29T13:44:08.471Z,96466.19
2023-10-29T13:46:35.059Z,96525.56
2023-10-29T13:49:03.404Z,96530.63
2023-10-29T13:51:31.008Z,96566.31
2023-10-29T13:53:57.985Z,96554.88
2023-10-29T13:56:25.881Z,96567.47
2023-10-29T13:58:52.393Z,96588.66
2023-10-29T14:01:24.594Z,96581.19
2023-10-29T14:03:56.942Z,96565.97
2023-10-29T14:06:24.126Z,96575.06
2023-10-29T14:08:50.907Z,96578.28
2023-10-29T14:11:18.146Z,96576.16
2023-10-29T14:13:46.525Z,96578.31
2023-10-29T14:16:13.939Z,96558.25
2023-10-29T14:18:43.521Z,96539.06
2023-10-29T14:21:10.853Z,96555.84
2023-10-29T14:23:37.576Z,96541.44
2023-10-29T14:26:04.204Z,96533.44
2023-10-29T14:28:30.782Z,96532.09
2023-10-29T14:30:57.510Z,96550.81
2023-10-29T14:33:24.268Z,96540.16
2023-10-29T14:35:58.327Z,96573.53
2023-10-29T14:38:25.115Z,96580.00
2023-10-29T14:40:54.815Z,96562.91
2023-10-29T14:43:22.951Z,96565.03
2023-10-29T14:45:51.666Z,96589.88
2023-10-29T14:48:18.418Z,96614.72
2023-10-29T14:50:45.313Z,96635.00
2023-10-29T14:53:12.041Z,96616.31
2023-10-29T14:55:45.053Z,96577.06
2023-10-29T14:58:11.639Z,96592.28
2023-10-29T15:00:43.203Z,96617.09
2023-10-29T15:03:12.947Z,96613.38
2023-10-29T15:05:39.719Z,96626.97
2023-10-29T15:08:06.369Z,96658.50
2023-10-29T15:10:32.970Z,96663.59
2023-10-29T15:12:59.507Z,96644.09
2023-10-29T15:15:30.372Z,96681.19
2023-10-29T15:17:58.004Z,96683.09
2023-10-29T15:20:25.093Z,96682.28
2023-10-29T15:22:51.618Z,96700.69
2023-10-29T15:25:18.163Z,96672.41
2023-10-29T15:27:44.628Z,96646.50
2023-10-29T15:30:12.102Z,96673.19
2023-10-29T15:32:38.970Z,96655.06
2023-10-29T15:35:05.906Z,96676.13
2023-10-29T15:37:32.524Z,96685.19
2023-10-29T15:39:59.139Z,96689.19
2023-10-29T15:42:26.358Z,96689.75
2023-10-29T15:44:53.256Z,96691.63
2023-10-29T15:47:23.598Z,96711.63
2023-10-29T15:49:54.263Z,96732.97
2023-10-29T15:52:21.979Z,96727.59
2023-10-29T15:54:49.045Z,96709.47
2023-10-29T15:57:17.173Z,96713.75
2023-10-29T15:59:44.798Z,96720.41
2023-10-29T16:02:11.314Z,96717.44
2023-10-29T16:04:38.777Z,96710.78
2023-10-29T16:07:06.072Z,96720.13
2023-10-29T16:09:33.342Z,96734.78
2023-10-29T16:12:02.244Z,96749.19
2023-10-29T16:14:28.923Z,96746.78
2023-10-29T16:16:56.924Z,96743.59
2023-10-29T16:19:23.692Z,96736.13
2023-10-29T16:21:50.309Z,96725.75
2023-10-29T16:24:18.587Z,96709.47
2023-10-29T16:26:45.228Z,96696.38
2023-10-29T16:29:14.717Z,96700.13
2023-10-29T16:31:41.217Z,96699.06
2023-10-29T16:34:08.774Z,96717.72
2023-10-29T16:36:35.497Z,96712.38
2023-10-29T16:39:02.087Z,96713.16
2023-10-29T16:41:28.688Z,96702.25
2023-10-29T16:43:55.176Z,96689.66
2023-10-29T16:46:22.156Z,96693.94
2023-10-29T16:48:49.906Z,96699.03
2023-10-29T16:51:16.514Z,96705.16
2023-10-29T16:53:42.985Z,96708.91
2023-10-29T16:56:09.769Z,96720.63
2023-10-29T16:58:36.344Z,96715.81
2023-10-29T17:01:03.119Z,96728.91
2023-10-29T17:03:30.044Z,96741.16
2023-10-29T17:05:56.761Z,96754.25
2023-10-29T17:08:24.805Z,96760.41
2023-10-29T17:10:51.353Z,96761.47
2023-10-29T17:13:17.916Z,96760.66
2023-10-29T17:15:44.634Z,96765.47
2023-10-29T17:18:11.672Z,96770.53
2023-10-29T17:20:38.387Z,96772.44
2023-10-29T17:23:04.904Z,96776.41
2023-10-29T17:25:35.438Z,96777.47
2023-10-29T17:28:02.693Z,96764.66
2023-10-29T17:30:29.273Z,96764.13
2023-10-29T17:32:58.585Z,96772.13
2023-10-29T17:35:31.175Z,96772.09
2023-10-29T17:37:58.315Z,96787.25
2023-10-29T17:40:27.985Z,96783.78
2023-10-29T17:42:54.520Z,96786.97
2023-10-29T17:45:21.366Z,96776.78
2023-10-29T17:47:52.312Z,96773.31
2023-10-29T17:50:18.969Z,96754.94
2023-10-29T17:52:45.456Z,96785.56
2023-10-29T17:55:12.069Z,96785.81
2023-10-29T17:57:38.542Z,96787.94
2023-10-29T18:00:08.373Z,96779.13
2023-10-29T18:02:36.482Z,96772.22
2023-10-29T18:05:04.227Z,96794.56
2023-10-29T18:07:30.927Z,96796.97
2023-10-29T18:09:57.388Z,96790.59
2023-10-29T18:12:23.935Z,96779.66
2023-10-29T18:14:53.913Z,96781.28
2023-10-29T18:17:20.730Z,96805.28
2023-10-29T18:19:47.326Z,96816.97
2023-10-29T18:22:14.030Z,96813.06
2023-10-29T18:24:40.596Z,96805.66
2023-10-29T18:27:07.189Z,96788.03
2023-10-29T18:29:33.755Z,96793.88
2023-10-29T18:32:00.610Z,96813.06
2023-10-29T18:34:27.162Z,96817.88
2023-10-29T18:36:53.631Z,96822.38
2023-10-29T18:39:20.123Z,96811.47
2023-10-29T18:41:46.769Z,96813.59
2023-10-29T18:44:13.425Z,96815.72
2023-10-29T18:46:40.181Z,96804.63
2023-10-29T18:49:07.005Z,96808.09
2023-10-29T18:51:33.584Z,96811.22
2023-10-29T18:54:00.508Z,96813.13
2023-10-29T18:56:27.135Z,96822.72
2023-10-29T18:58:56.365Z,96818.44
2023-10-29T19:01:23.017Z,96824.00
2023-10-29T19:03:50.767Z,96826.41
2023-10-29T19:06:17.956Z,96830.34
2023-10-29T19:08:46.593Z,96826.16
2023-10-29T19:11:13.046Z,96835.19
2023-10-29T19:13:39.683Z,96826.63
2023-10-29T19:16:07.032Z,96830.34
2023-10-29T19:18:35.164Z,96817.53
2023-10-29T19:21:02.312Z,96828.22
2023-10-29T19:23:29.378Z,96803.13
2023-10-29T19:25:58.139Z,96839.63
2023-10-29T19:28:24.829Z,96836.13
2023-10-29T19:31:10.976Z,96850.03
2023-10-29T19:33:41.428Z,96839.56
2023-10-29T19:36:12.264Z,96840.41
2023-10-29T19:38:39.231Z,96843.84
2023-10-29T19:41:06.832Z,96851.00
2023-10-29T19:43:34.712Z,96865.97
2023-10-29T19:46:01.550Z,96870.00
2023-10-29T19:48:30.353Z,96863.47
2023-10-29T19:51:00.256Z,96847.47
2023-10-29T19:53:28.683Z,96881.59
2023-10-29T19:55:56.630Z,96872.38
2023-10-29T19:58:24.256Z,96898.31
2023-10-29T20:00:51.745Z,96896.06
2023-10-29T20:03:19.081Z,96885.94
2023-10-29T20:05:45.972Z,96907.97
2023-10-29T20:08:12.773Z,96921.28
2023-10-29T20:10:40.637Z,96916.22
2023-10-29T20:13:07.694Z,96904.81
2023-10-29T20:15:35.386Z,96903.28
2023-10-29T20:18:03.714Z,96899.25
2023-10-29T20:20:30.687Z,96876.50
2023-10-29T20:22:57.972Z,96902.75
2023-10-29T20:25:28.883Z,96909.16
2023-10-29T20:27:56.259Z,96903.31
2023-10-29T20:30:26.849Z,96904.84
2023-10-29T20:32:53.835Z,96919.84
2023-10-29T20:35:20.524Z,96908.06
2023-10-29T20:37:47.344Z,96888.34
2023-10-29T20:40:15.161Z,96897.69
2023-10-29T20:42:41.631Z,96893.97
2023-10-29T20:45:08.469Z,96894.78
2023-10-29T20:47:35.214Z,96910.81
2023-10-29T20:50:05.907Z,96916.41
2023-10-29T20:52:33.480Z,96919.94
2023-10-29T20:54:59.984Z,96928.38
2023-10-29T20:57:26.627Z,96935.31
2023-10-29T20:59:53.173Z,96928.38
2023-10-29T21:02:19.882Z,96928.66
2023-10-29T21:04:46.486Z,96926.25
2023-10-29T21:07:13.990Z,96932.94
2023-10-29T21:09:41.006Z,96948.66
2023-10-29T21:12:08.431Z,96936.38
2023-10-29T21:14:35.316Z,96947.06
2023-10-29T21:17:01.893Z,96944.63
2023-10-29T21:19:30.604Z,96949.16
2023-10-29T21:22:01.533Z,96933.22
2023-10-29T21:24:29.352Z,96937.47
2023-10-29T21:26:56.878Z,96931.53
2023-10-29T21:29:26.608Z,96945.75
2023-10-29T21:31:53.113Z,96955.88
2023-10-29T21:34:19.751Z,96947.56
2023-10-29T21:36:46.232Z,96922.56
2023-10-29T21:39:13.887Z,96931.41
2023-10-29T21:41:41.229Z,96934.03
2023-10-29T21:44:07.816Z,96937.50
2023-10-29T21:46:35.664Z,96924.75
2023-10-29T21:49:03.792Z,96925.75
2023-10-29T21:51:33.450Z,96914.00
2023-10-29T21:54:00.150Z,96930.00
2023-10-29T21:56:26.736Z,96933.22
2023-10-29T21:58:53.338Z,96932.91
2023-10-29T22:01:23.611Z,96929.47
2023-10-29T22:03:51.053Z,96924.13
2023-10-29T22:06:18.110Z,96905.97
2023-10-29T22:08:44.718Z,96932.22
2023-10-29T22:11:13.213Z,96924.22
2023-10-29T22:13:41.228Z,96912.13
2023-10-29T22:16:11.049Z,96916.09
2023-10-29T22:18:40.308Z,96936.19
2023-10-29T22:21:06.956Z,96948.16
2023-10-29T22:23:34.719Z,96942.34
2023-10-29T22:26:01.987Z,96957.78
2023-10-29T22:28:28.745Z,96968.97
2023-10-29T22:31:02.511Z,96991.13
2023-10-29T22:33:30.573Z,96980.03
2023-10-29T22:35:59.483Z,96989.59
2023-10-29T22:38:26.141Z,96993.31
2023-10-29T22:41:03.657Z,97007.31
2023-10-29T22:43:31.310Z,97017.16
2023-10-29T22:45:57.979Z,96997.56
2023-10-29T22:48:25.447Z,97010.44
2023-10-29T22:50:52.031Z,97003.75
2023-10-29T22:53:18.929Z,97013.16
2023-10-29T22:55:45.698Z,97008.34
2023-10-29T22:58:12.478Z,97017.97
2023-10-29T23:00:39.216Z,97006.47
2023-10-29T23:03:06.156Z,97022.50
2023-10-29T23:05:34.033Z,97032.13
2023-10-29T23:08:01.374Z,97040.34
2023-10-29T23:10:29.195Z,97044.09
2023-10-29T23:12:57.784Z,97029.69
2023-10-29T23:15:24.913Z,97029.69
2023-10-29T23:17:51.620Z,97020.28
2023-10-29T23:20:18.210Z,97018.97
2023-10-29T23:22:44.730Z,97011.41
2023-10-29T23:25:12.128Z,97020.53
2023-10-29T23:27:40.082Z,96991.50
2023-10-29T23:30:07.425Z,97012.00
2023-10-29T23:32:34.302Z,96980.75
2023-10-29T23:35:00.873Z,96971.34
2023-10-29T23:37:27.561Z,96980.16
2023-10-29T23:39:54.179Z,96991.06
2023-10-29T23:42:20.694Z,97016.63
2023-10-29T23:44:47.587Z,97022.50
2023-10-29T23:47:14.146Z,96992.00
2023-10-29T23:49:40.662Z,97026.84
2023-10-29T23:52:07.164Z,97018.59
2023-10-29T23:54:33.749Z,97010.13
2023-10-29T23:57:00.813Z,97005.59
2023-10-29T23:59:27.408Z,97008.03
